createdAt,value
2017-09-19T00:01:10.246Z,66.50
2017-09-19T00:03:37.721Z,66.70
2017-09-19T00:06:05.185Z,66.90
2017-09-19T00:08:32.661Z,66.80
2017-09-19T00:11:00.168Z,66.70
2017-09-19T00:13:27.680Z,66.80
2017-09-19T00:15:55.243Z,66.90
2017-09-19T00:18:22.704Z,67.00
2017-09-19T00:20:50.170Z,67.30
2017-09-19T00:23:17.656Z,66.90
2017-09-19T00:25:45.128Z,67.10
2017-09-19T00:28:13.355Z,67.00
2017-09-19T00:30:40.838Z,66.90
2017-09-19T00:33:08.401Z,67.00
2017-09-19T00:35:35.873Z,66.80
2017-09-19T00:38:04.119Z,66.90
2017-09-19T00:40:31.606Z,66.80
2017-09-19T00:42:59.834Z,67.70
2017-09-19T00:45:27.316Z,66.80
2017-09-19T00:47:54.794Z,66.90
2017-09-19T00:50:23.030Z,67.40
2017-09-19T00:52:50.503Z,67.30
2017-09-19T00:55:17.989Z,67.10
2017-09-19T00:57:46.222Z,67.20
2017-09-19T01:00:13.705Z,67.30
2017-09-19T01:02:41.174Z,67.30
2017-09-19T01:05:09.423Z,67.80
2017-09-19T01:07:36.989Z,67.70
2017-09-19T01:10:04.461Z,67.50
2017-09-19T01:12:32.720Z,67.70
2017-09-19T01:15:00.282Z,67.70
2017-09-19T01:17:27.793Z,67.70
2017-09-19T01:19:55.263Z,67.10
2017-09-19T01:22:22.729Z,67.60
2017-09-19T01:24:50.209Z,67.60
2017-09-19T01:27:17.678Z,67.70
2017-09-19T01:29:45.945Z,67.90
2017-09-19T01:32:13.409Z,67.80
2017-09-19T01:34:41.677Z,67.80
2017-09-19T01:37:09.241Z,67.80
2017-09-19T01:39:40.242Z,67.60
2017-09-19T01:42:07.718Z,67.50
2017-09-19T01:44:35.196Z,67.60
2017-09-19T01:47:03.424Z,68.10
2017-09-19T01:49:30.923Z,68.10
2017-09-19T01:51:58.636Z,68.00
2017-09-19T01:54:26.081Z,67.70
2017-09-19T01:56:53.561Z,67.40
2017-09-19T01:59:21.021Z,67.40
2017-09-19T02:01:48.488Z,67.80
2017-09-19T02:04:15.950Z,67.80
2017-09-19T02:06:43.424Z,68.00
2017-09-19T02:09:10.886Z,68.10
2017-09-19T02:11:38.491Z,68.20
2017-09-19T02:14:06.005Z,68.10
2017-09-19T02:16:33.462Z,67.80
2017-09-19T02:19:01.064Z,68.00
2017-09-19T02:21:28.515Z,68.00
2017-09-19T02:23:55.985Z,68.10
2017-09-19T02:26:23.447Z,68.30
2017-09-19T02:28:50.917Z,68.20
2017-09-19T02:31:18.377Z,68.10
2017-09-19T02:33:45.849Z,68.10
2017-09-19T02:36:13.313Z,67.80
2017-09-19T02:38:41.562Z,67.80
2017-09-19T02:41:09.035Z,67.70
2017-09-19T02:43:36.593Z,68.00
2017-09-19T02:46:04.208Z,68.10
2017-09-19T02:48:31.676Z,68.10
2017-09-19T02:50:59.141Z,68.10
2017-09-19T02:53:26.603Z,68.30
2017-09-19T02:55:54.108Z,68.10
2017-09-19T02:58:22.345Z,68.00
2017-09-19T03:00:49.829Z,68.00
2017-09-19T03:03:18.144Z,68.00
2017-09-19T03:05:45.645Z,68.00
2017-09-19T03:08:13.201Z,68.00
2017-09-19T03:10:40.681Z,68.10
2017-09-19T03:13:08.912Z,68.20
2017-09-19T03:15:36.394Z,68.10
2017-09-19T03:18:03.848Z,68.10
2017-09-19T03:20:31.318Z,68.20
2017-09-19T03:22:59.553Z,68.10
2017-09-19T03:25:27.018Z,68.10
2017-09-19T03:27:54.472Z,68.10
2017-09-19T03:30:21.952Z,68.00
2017-09-19T03:32:49.414Z,68.10
2017-09-19T03:35:16.886Z,68.10
2017-09-19T03:37:45.143Z,68.10
2017-09-19T03:40:12.609Z,68.10
2017-09-19T03:42:40.157Z,68.00
2017-09-19T03:45:07.620Z,68.90
2017-09-19T03:47:35.081Z,67.60
2017-09-19T03:50:02.630Z,67.60
2017-09-19T03:52:30.089Z,67.60
2017-09-19T03:54:57.726Z,67.80
2017-09-19T03:57:25.185Z,67.70
2017-09-19T03:59:52.657Z,67.70
2017-09-19T04:02:20.121Z,67.70
2017-09-19T04:04:47.683Z,67.60
2017-09-19T04:07:15.138Z,68.70
2017-09-19T04:09:42.687Z,68.80
2017-09-19T04:12:10.149Z,69.70
2017-09-19T04:14:37.758Z,69.00
2017-09-19T04:17:05.220Z,69.00
2017-09-19T04:19:32.723Z,68.90
2017-09-19T04:22:00.274Z,69.10
2017-09-19T04:24:27.746Z,69.10
2017-09-19T04:26:56.109Z,68.00
2017-09-19T04:29:23.726Z,68.70
2017-09-19T04:31:51.185Z,68.80
2017-09-19T04:34:18.634Z,69.10
2017-09-19T04:36:46.097Z,69.30
2017-09-19T04:39:13.549Z,69.40
2017-09-19T04:41:41.017Z,69.20
2017-09-19T04:44:08.487Z,69.00
2017-09-19T04:46:35.958Z,69.20
2017-09-19T04:49:03.526Z,69.20
2017-09-19T04:51:31.757Z,69.40
2017-09-19T04:53:59.373Z,69.50
2017-09-19T04:56:27.633Z,70.70
2017-09-19T04:58:55.190Z,69.60
2017-09-19T05:01:24.954Z,70.70
2017-09-19T05:03:52.421Z,70.70
2017-09-19T05:06:20.056Z,70.80
2017-09-19T05:08:48.292Z,69.00
2017-09-19T05:11:15.761Z,70.10
2017-09-19T05:13:43.325Z,69.20
2017-09-19T05:16:10.952Z,69.10
2017-09-19T05:18:38.417Z,70.10
2017-09-19T05:21:05.887Z,69.00
2017-09-19T05:23:33.399Z,70.10
2017-09-19T05:26:00.902Z,70.10
2017-09-19T05:28:28.368Z,70.50
2017-09-19T05:30:55.844Z,70.60
2017-09-19T05:33:24.088Z,70.80
2017-09-19T05:35:51.556Z,70.70
2017-09-19T05:38:19.100Z,70.90
2017-09-19T05:40:46.563Z,70.80
2017-09-19T05:43:14.113Z,70.60
2017-09-19T05:45:41.579Z,70.70
2017-09-19T05:48:09.140Z,70.90
2017-09-19T05:50:36.605Z,71.10
2017-09-19T05:53:10.966Z,70.80
2017-09-19T05:55:38.523Z,71.30
2017-09-19T05:58:05.978Z,71.80
2017-09-19T06:00:33.461Z,71.90
2017-09-19T06:03:00.938Z,70.50
2017-09-19T06:05:28.415Z,70.90
2017-09-19T06:07:56.778Z,72.80
2017-09-19T06:10:24.256Z,72.80
2017-09-19T06:12:52.492Z,73.20
2017-09-19T06:15:20.064Z,73.10
2017-09-19T06:17:47.625Z,71.80
2017-09-19T06:20:15.110Z,72.20
2017-09-19T06:22:42.590Z,73.50
2017-09-19T06:25:10.097Z,72.30
2017-09-19T06:27:37.648Z,72.30
2017-09-19T06:30:05.141Z,72.40
2017-09-19T06:32:33.369Z,72.50
2017-09-19T06:35:00.899Z,72.40
2017-09-19T06:37:28.369Z,72.40
2017-09-19T06:39:55.856Z,72.40
2017-09-19T06:42:23.328Z,72.20
2017-09-19T06:44:50.827Z,72.10
2017-09-19T06:47:18.301Z,72.10
2017-09-19T06:49:45.772Z,71.80
2017-09-19T06:52:13.266Z,71.80
2017-09-19T06:54:41.518Z,71.40
2017-09-19T06:57:09.030Z,71.30
2017-09-19T06:59:36.496Z,71.10
2017-09-19T07:02:03.972Z,70.50
2017-09-19T07:04:31.438Z,70.20
2017-09-19T07:06:59.001Z,70.20
2017-09-19T07:09:26.621Z,70.00
2017-09-19T07:11:54.094Z,70.00
2017-09-19T07:14:21.575Z,69.80
2017-09-19T07:16:49.044Z,69.50
2017-09-19T07:19:17.312Z,69.20
2017-09-19T07:21:44.789Z,68.70
2017-09-19T07:24:13.040Z,68.90
2017-09-19T07:26:40.519Z,68.80
2017-09-19T07:29:08.777Z,68.80
2017-09-19T07:31:36.277Z,68.70
2017-09-19T07:34:03.745Z,68.40
2017-09-19T07:36:31.226Z,68.30
2017-09-19T07:38:58.818Z,67.40
2017-09-19T07:41:27.080Z,67.50
2017-09-19T07:43:54.553Z,67.30
2017-09-19T07:46:22.794Z,66.90
2017-09-19T07:48:50.278Z,66.80
2017-09-19T07:51:18.553Z,67.30
2017-09-19T07:53:46.026Z,67.20
2017-09-19T07:56:14.335Z,66.10
2017-09-19T07:58:41.804Z,66.10
2017-09-19T08:01:09.346Z,65.60
2017-09-19T08:03:36.818Z,66.00
2017-09-19T08:06:04.324Z,65.00
2017-09-19T08:08:32.565Z,66.00
2017-09-19T08:11:00.196Z,65.90
2017-09-19T08:13:27.665Z,65.20
2017-09-19T08:15:55.211Z,65.00
2017-09-19T08:18:22.683Z,65.00
2017-09-19T08:20:50.174Z,65.00
2017-09-19T08:23:17.731Z,65.00
2017-09-19T08:25:45.201Z,64.90
2017-09-19T08:28:13.476Z,64.60
2017-09-19T08:30:41.728Z,64.00
2017-09-19T08:33:09.198Z,64.00
2017-09-19T08:35:36.797Z,64.20
2017-09-19T08:38:04.288Z,64.80
2017-09-19T08:40:31.767Z,63.60
2017-09-19T08:42:59.227Z,64.40
2017-09-19T08:45:26.692Z,63.90
2017-09-19T08:47:54.959Z,62.10
2017-09-19T08:50:22.421Z,62.10
2017-09-19T08:52:49.922Z,61.10
2017-09-19T08:55:17.484Z,60.50
2017-09-19T08:57:44.976Z,61.50
2017-09-19T09:00:13.273Z,62.40
2017-09-19T09:02:41.542Z,60.60
2017-09-19T09:05:09.809Z,60.00
2017-09-19T09:07:37.373Z,59.90
2017-09-19T09:10:04.837Z,58.80
2017-09-19T09:12:33.110Z,59.30
2017-09-19T09:15:00.582Z,59.30
2017-09-19T09:17:28.828Z,59.20
2017-09-19T09:19:56.409Z,59.20
2017-09-19T09:22:23.878Z,59.40
2017-09-19T09:24:51.341Z,59.60
2017-09-19T09:27:18.807Z,58.60
2017-09-19T09:29:46.322Z,58.70
2017-09-19T09:32:13.794Z,58.60
2017-09-19T09:34:42.013Z,58.60
2017-09-19T09:37:09.480Z,58.50
2017-09-19T09:39:36.940Z,58.10
2017-09-19T09:42:04.399Z,57.30
2017-09-19T09:44:31.852Z,57.30
2017-09-19T09:46:59.322Z,57.30
2017-09-19T09:49:26.804Z,56.10
2017-09-19T09:51:54.270Z,56.50
2017-09-19T09:54:22.503Z,57.00
2017-09-19T09:56:49.974Z,56.90
2017-09-19T09:59:17.512Z,57.10
2017-09-19T10:01:45.104Z,57.90
2017-09-19T10:04:12.555Z,58.00
2017-09-19T10:06:40.131Z,58.00
2017-09-19T10:09:08.373Z,57.30
2017-09-19T10:11:35.842Z,57.20
2017-09-19T10:14:03.395Z,57.10
2017-09-19T10:16:30.917Z,56.30
2017-09-19T10:18:58.402Z,56.80
2017-09-19T10:21:25.858Z,56.60
2017-09-19T10:23:53.325Z,55.90
2017-09-19T10:26:20.780Z,55.50
2017-09-19T10:28:48.250Z,56.40
2017-09-19T10:31:16.607Z,56.70
2017-09-19T10:33:44.102Z,56.20
2017-09-19T10:36:12.354Z,56.30
2017-09-19T10:38:39.913Z,56.30
2017-09-19T10:41:07.382Z,56.60
2017-09-19T10:43:34.841Z,55.60
2017-09-19T10:46:02.317Z,55.40
2017-09-19T10:48:29.786Z,55.30
2017-09-19T10:50:57.291Z,54.50
2017-09-19T10:53:24.816Z,54.70
2017-09-19T10:55:52.273Z,52.40
2017-09-19T10:58:19.747Z,53.20
2017-09-19T11:00:47.271Z,53.30
2017-09-19T11:03:15.506Z,51.20
2017-09-19T11:05:42.970Z,51.20
2017-09-19T11:08:10.443Z,50.90
2017-09-19T11:10:38.675Z,48.10
2017-09-19T11:13:06.146Z,48.00
2017-09-19T11:15:35.142Z,46.80
2017-09-19T11:18:02.783Z,46.80
2017-09-19T11:20:30.229Z,48.40
2017-09-19T11:22:57.689Z,49.80
2017-09-19T11:25:25.168Z,51.40
2017-09-19T11:27:52.623Z,52.00
2017-09-19T11:30:20.882Z,52.80
2017-09-19T11:32:48.429Z,51.30
2017-09-19T11:35:15.899Z,50.40
2017-09-19T11:37:43.348Z,50.00
2017-09-19T11:40:10.838Z,49.80
2017-09-19T11:42:39.083Z,50.40
2017-09-19T11:45:06.565Z,50.30
2017-09-19T11:47:34.025Z,51.00
2017-09-19T11:50:02.253Z,49.90
2017-09-19T11:52:29.725Z,49.90
2017-09-19T11:54:57.185Z,49.80
2017-09-19T11:57:24.662Z,50.00
2017-09-19T11:59:52.230Z,50.90
2017-09-19T12:02:19.689Z,51.30
2017-09-19T12:04:47.143Z,51.30
2017-09-19T12:07:14.693Z,50.90
2017-09-19T12:09:42.161Z,51.80
2017-09-19T12:12:09.614Z,50.50
2017-09-19T12:14:37.877Z,49.40
2017-09-19T12:17:06.120Z,48.70
2017-09-19T12:19:33.611Z,48.60
2017-09-19T12:22:01.069Z,50.10
2017-09-19T12:24:29.323Z,50.20
2017-09-19T12:26:56.795Z,50.20
2017-09-19T12:29:24.306Z,50.30
2017-09-19T12:31:51.815Z,49.20
2017-09-19T12:34:19.383Z,49.70
2017-09-19T12:36:47.623Z,47.50
2017-09-19T12:39:15.090Z,47.40
2017-09-19T12:41:42.657Z,47.70
2017-09-19T12:44:10.225Z,47.10
2017-09-19T12:46:37.773Z,47.20
2017-09-19T12:49:05.242Z,47.70
2017-09-19T12:51:32.735Z,47.00
2017-09-19T12:54:00.255Z,47.30
2017-09-19T12:56:28.587Z,48.50
2017-09-19T12:58:56.060Z,48.60
2017-09-19T13:01:23.704Z,49.00
2017-09-19T13:03:51.163Z,48.90
2017-09-19T13:06:18.620Z,48.70
2017-09-19T13:08:46.126Z,49.50
2017-09-19T13:11:14.396Z,48.90
2017-09-19T13:13:42.630Z,49.00
2017-09-19T13:16:10.184Z,48.90
2017-09-19T13:18:37.650Z,49.00
2017-09-19T13:21:05.108Z,48.00
2017-09-19T13:23:32.587Z,48.50
2017-09-19T13:26:00.061Z,48.30
2017-09-19T13:28:28.387Z,49.40
2017-09-19T13:31:07.841Z,49.30
2017-09-19T13:33:47.124Z,50.20
2017-09-19T13:36:15.385Z,48.20
2017-09-19T13:38:42.850Z,48.20
2017-09-19T13:41:10.495Z,47.30
2017-09-19T13:43:37.955Z,48.40
2017-09-19T13:46:05.404Z,49.10
2017-09-19T13:48:32.906Z,49.10
2017-09-19T13:51:00.373Z,48.80
2017-09-19T13:53:27.841Z,49.00
2017-09-19T13:55:55.302Z,49.00
2017-09-19T13:58:22.794Z,49.80
2017-09-19T14:00:51.072Z,49.90
2017-09-19T14:03:18.622Z,49.80
2017-09-19T14:05:46.088Z,49.10
2017-09-19T14:08:13.553Z,49.80
2017-09-19T14:10:41.113Z,49.20
2017-09-19T14:13:08.577Z,50.00
2017-09-19T14:15:36.843Z,49.20
2017-09-19T14:18:04.302Z,49.20
2017-09-19T14:20:31.789Z,49.40
2017-09-19T14:22:59.241Z,49.30
2017-09-19T14:25:26.701Z,48.90
2017-09-19T14:27:54.219Z,49.00
2017-09-19T14:30:21.672Z,49.70
2017-09-19T14:32:49.230Z,50.20
2017-09-19T14:35:18.207Z,47.00
2017-09-19T14:37:45.783Z,47.00
2017-09-19T14:40:13.249Z,46.80
2017-09-19T14:42:40.713Z,46.30
2017-09-19T14:45:08.933Z,45.50
2017-09-19T14:47:36.417Z,45.50
2017-09-19T14:50:03.880Z,46.10
2017-09-19T14:52:31.343Z,47.20
2017-09-19T14:54:58.818Z,47.80
2017-09-19T14:57:27.036Z,49.90
2017-09-19T14:59:54.509Z,49.90
2017-09-19T15:02:21.969Z,50.60
2017-09-19T15:04:49.434Z,50.90
2017-09-19T15:07:16.907Z,51.40
2017-09-19T15:09:44.395Z,51.30
2017-09-19T15:12:11.845Z,50.80
2017-09-19T15:14:39.296Z,51.90
2017-09-19T15:17:07.531Z,52.00
2017-09-19T15:19:35.034Z,52.00
2017-09-19T15:22:02.512Z,51.80
2017-09-19T15:24:29.969Z,51.70
2017-09-19T15:26:57.450Z,51.80
2017-09-19T15:29:24.902Z,51.80
2017-09-19T15:31:52.385Z,52.00
2017-09-19T15:34:19.841Z,51.90
2017-09-19T15:36:47.308Z,52.10
2017-09-19T15:39:14.774Z,52.00
2017-09-19T15:41:42.997Z,52.40
2017-09-19T15:44:10.459Z,52.40
2017-09-19T15:46:37.910Z,52.50
2017-09-19T15:49:05.378Z,52.50
2017-09-19T15:51:33.610Z,52.90
2017-09-19T15:54:01.094Z,53.00
2017-09-19T15:56:28.562Z,53.00
2017-09-19T15:58:56.049Z,53.00
2017-09-19T16:01:23.519Z,53.20
2017-09-19T16:03:51.754Z,53.70
2017-09-19T16:06:19.233Z,53.70
2017-09-19T16:08:46.693Z,54.10
2017-09-19T16:11:14.159Z,53.90
2017-09-19T16:13:42.385Z,54.20
2017-09-19T16:16:09.849Z,54.10
2017-09-19T16:18:37.330Z,54.00
2017-09-19T16:21:04.831Z,54.30
2017-09-19T16:23:32.298Z,54.70
2017-09-19T16:25:59.782Z,54.10
2017-09-19T16:28:27.217Z,54.50
2017-09-19T16:30:54.673Z,54.80
2017-09-19T16:33:22.138Z,54.80
2017-09-19T16:35:49.625Z,55.10
2017-09-19T16:38:17.102Z,55.30
2017-09-19T16:40:45.364Z,55.60
2017-09-19T16:43:12.828Z,55.50
2017-09-19T16:45:40.290Z,55.80
2017-09-19T16:48:08.515Z,56.40
2017-09-19T16:50:35.994Z,55.90
2017-09-19T16:53:03.564Z,56.10
2017-09-19T16:55:31.126Z,56.20
2017-09-19T16:57:59.365Z,56.20
2017-09-19T17:00:26.842Z,56.30
2017-09-19T17:02:54.413Z,56.50
2017-09-19T17:05:21.910Z,56.40
2017-09-19T17:07:49.438Z,56.70
2017-09-19T17:10:17.666Z,56.70
2017-09-19T17:12:45.158Z,56.70
2017-09-19T17:15:12.725Z,56.70
2017-09-19T17:17:40.282Z,56.70
2017-09-19T17:20:09.261Z,56.90
2017-09-19T17:22:36.839Z,56.90
2017-09-19T17:25:05.118Z,56.60
2017-09-19T17:27:33.366Z,57.10
2017-09-19T17:30:00.849Z,57.00
2017-09-19T17:32:28.348Z,57.20
2017-09-19T17:34:55.809Z,56.90
2017-09-19T17:37:23.326Z,57.50
2017-09-19T17:39:51.562Z,57.40
2017-09-19T17:42:19.040Z,57.40
2017-09-19T17:44:47.279Z,57.70
2017-09-19T17:47:14.777Z,57.70
2017-09-19T17:49:43.750Z,58.20
2017-09-19T17:52:11.227Z,58.10
2017-09-19T17:54:39.467Z,58.60
2017-09-19T17:57:06.941Z,58.60
2017-09-19T17:59:34.417Z,58.60
2017-09-19T18:02:02.126Z,58.50
2017-09-19T18:04:29.630Z,58.50
2017-09-19T18:06:57.107Z,58.60
2017-09-19T18:09:25.329Z,58.80
2017-09-19T18:11:52.871Z,58.80
2017-09-19T18:14:20.374Z,58.80
2017-09-19T18:16:47.962Z,58.90
2017-09-19T18:19:16.193Z,59.00
2017-09-19T18:21:43.669Z,58.90
2017-09-19T18:24:11.918Z,59.30
2017-09-19T18:26:39.406Z,59.30
2017-09-19T18:29:06.886Z,59.60
2017-09-19T18:31:35.109Z,59.90
2017-09-19T18:34:02.643Z,59.90
2017-09-19T18:36:30.107Z,59.90
2017-09-19T18:38:57.618Z,59.70
2017-09-19T18:41:25.857Z,60.10
2017-09-19T18:43:53.321Z,60.10
2017-09-19T18:46:20.798Z,60.20
2017-09-19T18:48:48.257Z,60.40
2017-09-19T18:51:15.773Z,60.70
2017-09-19T18:53:43.239Z,60.70
2017-09-19T18:56:10.700Z,61.00
2017-09-19T18:58:38.264Z,61.40
2017-09-19T19:03:38.192Z,62.00
2017-09-19T19:06:05.661Z,62.20
2017-09-19T19:08:33.116Z,62.30
2017-09-19T19:11:00.632Z,62.30
2017-09-19T19:13:28.134Z,62.30
2017-09-19T19:15:55.603Z,62.30
2017-09-19T19:18:23.847Z,62.20
2017-09-19T19:20:51.313Z,62.10
2017-09-19T19:23:18.787Z,62.30
2017-09-19T19:25:46.251Z,63.00
2017-09-19T19:28:14.480Z,62.90
2017-09-19T19:30:41.954Z,62.90
2017-09-19T19:33:09.422Z,62.60
2017-09-19T19:35:37.655Z,62.70
2017-09-19T19:38:05.181Z,62.70
2017-09-19T19:40:33.432Z,62.80
2017-09-19T19:43:00.907Z,62.70
2017-09-19T19:45:29.169Z,63.50
2017-09-19T19:47:56.887Z,63.40
2017-09-19T19:50:25.014Z,63.40
2017-09-19T19:52:52.552Z,63.50
2017-09-19T19:55:20.009Z,63.50
2017-09-19T19:57:47.525Z,63.50
2017-09-19T20:00:15.001Z,63.60
2017-09-19T20:02:42.474Z,63.70
2017-09-19T20:05:09.945Z,63.80
2017-09-19T20:07:37.425Z,63.80
2017-09-19T20:10:05.669Z,64.50
2017-09-19T20:12:33.153Z,64.50
2017-09-19T20:15:01.427Z,64.80
2017-09-19T20:17:29.691Z,65.00
2017-09-19T20:19:57.165Z,65.00
2017-09-19T20:22:25.409Z,65.60
2017-09-19T20:24:52.873Z,65.50
2017-09-19T20:27:20.340Z,65.70
2017-09-19T20:29:48.573Z,66.00
2017-09-19T20:32:16.047Z,66.00
2017-09-19T20:34:43.510Z,66.30
2017-09-19T20:37:11.763Z,66.40
2017-09-19T20:39:39.226Z,66.50
2017-09-19T20:42:06.806Z,66.50
2017-09-19T20:44:35.786Z,67.70
2017-09-19T20:47:03.250Z,66.90
2017-09-19T20:49:30.818Z,67.00
2017-09-19T20:51:58.273Z,67.00
2017-09-19T20:54:25.822Z,67.30
2017-09-19T20:56:53.397Z,67.40
2017-09-19T20:59:21.627Z,68.00
2017-09-19T21:01:49.182Z,67.30
2017-09-19T21:04:22.253Z,67.70
2017-09-19T21:06:55.348Z,67.60
2017-09-19T21:09:28.545Z,67.80
2017-09-19T21:12:01.762Z,68.00
2017-09-19T21:14:35.032Z,68.30
2017-09-19T21:17:08.195Z,68.30
2017-09-19T21:19:35.168Z,68.30
2017-09-19T21:22:02.648Z,68.10
2017-09-19T21:24:30.219Z,68.20
2017-09-19T21:26:57.743Z,68.10
2017-09-19T21:29:25.209Z,68.20
2017-09-19T21:31:52.678Z,68.20
2017-09-19T21:34:20.262Z,68.00
2017-09-19T21:36:47.721Z,67.80
2017-09-19T21:39:15.257Z,68.40
2017-09-19T21:41:42.718Z,68.10
2017-09-19T21:44:10.283Z,68.20
2017-09-19T21:46:37.837Z,68.20
2017-09-19T21:49:05.393Z,68.10
2017-09-19T21:51:32.849Z,68.20
2017-09-19T21:54:00.418Z,68.40
2017-09-19T21:56:27.886Z,68.50
2017-09-19T21:58:55.387Z,68.60
2017-09-19T22:01:22.860Z,68.90
2017-09-19T22:03:50.332Z,69.10
2017-09-19T22:06:17.913Z,69.00
2017-09-19T22:08:46.185Z,69.20
2017-09-19T22:11:13.736Z,69.00
2017-09-19T22:13:41.192Z,68.90
2017-09-19T22:16:08.679Z,69.00
2017-09-19T22:18:36.922Z,69.10
2017-09-19T22:21:04.389Z,68.90
2017-09-19T22:23:31.893Z,69.00
2017-09-19T22:25:59.405Z,69.00
2017-09-19T22:28:27.002Z,69.20
2017-09-19T22:30:54.479Z,69.10
2017-09-19T22:33:21.945Z,69.20
2017-09-19T22:35:49.425Z,69.30
2017-09-19T22:38:16.981Z,69.10
2017-09-19T22:40:44.460Z,69.40
2017-09-19T22:43:12.720Z,69.30
2017-09-19T22:45:40.194Z,69.10
2017-09-19T22:48:08.466Z,69.50
2017-09-19T22:50:36.680Z,69.60
2017-09-19T22:53:04.193Z,69.60
2017-09-19T22:55:32.431Z,70.40
2017-09-19T22:57:59.904Z,69.60
2017-09-19T23:00:27.482Z,69.70
2017-09-19T23:02:55.089Z,69.80
2017-09-19T23:05:22.573Z,69.90
2017-09-19T23:07:50.137Z,69.80
2017-09-19T23:10:19.104Z,69.60
2017-09-19T23:12:46.586Z,69.60
2017-09-19T23:15:14.147Z,69.90
2017-09-19T23:17:41.722Z,69.60
2017-09-19T23:20:09.227Z,69.60
2017-09-19T23:22:36.702Z,70.20
2017-09-19T23:25:04.198Z,70.10
2017-09-19T23:27:31.669Z,69.80
2017-09-19T23:29:59.934Z,69.90
2017-09-19T23:32:28.179Z,70.00
2017-09-19T23:34:55.766Z,69.90
2017-09-19T23:37:23.250Z,70.00
2017-09-19T23:39:50.738Z,70.40
2017-09-19T23:42:18.231Z,70.30
2017-09-19T23:44:45.791Z,70.40
2017-09-19T23:47:14.023Z,70.30
2017-09-19T23:49:41.612Z,70.30
2017-09-19T23:52:09.176Z,70.20
2017-09-19T23:54:36.674Z,70.30
2017-09-19T23:57:04.191Z,70.60
2017-09-19T23:59:31.755Z,70.60
